createdAt,value
2022-08-17T00:00:42.746Z,22.70
2022-08-17T00:05:53.508Z,24.20
2022-08-17T00:10:55.697Z,23.55
2022-08-17T00:16:04.152Z,25.05
2022-08-17T00:21:10.503Z,23.75
2022-08-17T00:26:13.284Z,22.90
2022-08-17T00:31:16.029Z,23.90
2022-08-17T00:36:18.160Z,25.70
2022-08-17T00:41:23.522Z,23.23
2022-08-17T00:46:28.739Z,22.95
2022-08-17T00:51:48.059Z,24.77
2022-08-17T00:56:55.103Z,23.52
2022-08-17T01:01:58.422Z,24.10
2022-08-17T01:07:01.836Z,23.98
2022-08-17T01:12:06.613Z,23.23
2022-08-17T01:17:10.787Z,20.70
2022-08-17T01:22:12.409Z,21.73
2022-08-17T01:27:15.657Z,20.58
2022-08-17T01:32:20.336Z,20.65
2022-08-17T01:37:30.765Z,21.73
2022-08-17T01:43:01.102Z,21.13
2022-08-17T01:48:03.122Z,20.50
2022-08-17T01:53:11.050Z,21.73
2022-08-17T01:58:12.906Z,20.20
2022-08-17T02:03:14.705Z,20.48
2022-08-17T02:08:20.319Z,20.17
2022-08-17T02:13:22.467Z,21.50
2022-08-17T02:18:25.687Z,22.38
2022-08-17T02:23:30.338Z,22.95
2022-08-17T02:28:32.211Z,24.10
2022-08-17T02:33:42.128Z,23.65
2022-08-17T02:38:45.593Z,23.52
2022-08-17T02:43:47.300Z,22.40
2022-08-17T02:48:49.258Z,21.70
2022-08-17T02:53:51.301Z,23.67
2022-08-17T02:58:53.029Z,22.35
2022-08-17T03:03:55.005Z,22.42
2022-08-17T03:08:56.938Z,21.45
2022-08-17T03:13:59.161Z,22.60
2022-08-17T03:19:00.909Z,21.67
2022-08-17T03:24:08.792Z,21.63
2022-08-17T03:29:10.830Z,22.30
2022-08-17T03:34:14.044Z,22.63
2022-08-17T03:39:16.043Z,25.35
2022-08-17T03:44:17.734Z,24.40
2022-08-17T03:49:38.012Z,23.73
2022-08-17T03:54:59.322Z,24.70
2022-08-17T04:00:01.098Z,23.17
2022-08-17T04:05:02.909Z,22.80
2022-08-17T04:10:04.889Z,23.55
2022-08-17T04:15:06.992Z,20.52
2022-08-17T04:20:09.221Z,20.27
2022-08-17T04:25:17.434Z,20.75
2022-08-17T04:30:19.220Z,22.15
2022-08-17T04:35:23.704Z,19.48
2022-08-17T04:40:45.766Z,19.85
2022-08-17T04:45:56.281Z,23.88
2022-08-17T04:51:00.448Z,23.13
2022-08-17T04:56:02.565Z,22.25
2022-08-17T05:01:05.882Z,24.02
2022-08-17T05:06:07.903Z,24.00
2022-08-17T05:11:10.539Z,21.80
2022-08-17T05:16:12.309Z,22.38
2022-08-17T05:21:14.857Z,22.20
2022-08-17T05:26:25.573Z,22.08
2022-08-17T05:31:29.494Z,21.42
2022-08-17T05:36:38.129Z,22.25
2022-08-17T05:41:47.636Z,19.65
2022-08-17T05:46:52.050Z,21.20
2022-08-17T05:52:03.985Z,22.70
2022-08-17T05:57:17.793Z,21.77
2022-08-17T06:02:37.170Z,20.75
2022-08-17T06:08:03.851Z,20.43
2022-08-17T06:13:37.250Z,20.98
2022-08-17T06:18:46.301Z,19.60
2022-08-17T06:23:58.005Z,20.20
2022-08-17T06:29:03.921Z,20.90
2022-08-17T06:34:12.067Z,22.27
2022-08-17T06:39:42.706Z,21.00
2022-08-17T06:44:58.169Z,23.85
2022-08-17T06:50:27.362Z,21.55
2022-08-17T06:55:38.078Z,22.10
2022-08-17T07:00:42.679Z,22.38
2022-08-17T07:05:50.661Z,21.48
2022-08-17T07:10:57.461Z,23.52
2022-08-17T07:16:26.243Z,23.57
2022-08-17T07:21:52.573Z,24.10
2022-08-17T07:32:14.211Z,24.05
2022-08-17T07:37:19.279Z,23.58
2022-08-17T07:42:21.665Z,25.55
2022-08-17T07:47:42.214Z,24.15
2022-08-17T07:52:47.922Z,23.77
2022-08-17T07:57:57.402Z,25.98
2022-08-17T08:03:31.888Z,25.73
2022-08-17T08:08:42.187Z,27.02
2022-08-17T08:13:45.818Z,24.73
2022-08-17T08:18:54.498Z,22.90
2022-08-17T08:24:00.156Z,25.15
2022-08-17T08:29:22.606Z,23.10
2022-08-17T08:34:59.073Z,22.25
2022-08-17T08:40:28.281Z,22.65
2022-08-17T08:45:58.314Z,23.02
2022-08-17T08:51:05.206Z,25.73
2022-08-17T08:56:16.357Z,31.20
2022-08-17T09:01:26.715Z,27.73
2022-08-17T09:07:05.595Z,27.27
2022-08-17T09:12:34.572Z,27.42
2022-08-17T09:17:47.039Z,26.45
2022-08-17T09:22:55.900Z,26.23
2022-08-17T09:28:16.734Z,25.90
2022-08-17T09:33:26.932Z,27.63
2022-08-17T09:38:41.643Z,26.27
2022-08-17T09:43:49.109Z,26.17
2022-08-17T09:48:58.970Z,26.08
2022-08-17T09:54:20.927Z,26.08
2022-08-17T09:59:44.774Z,26.10
2022-08-17T10:05:06.718Z,26.10
2022-08-17T10:10:35.912Z,24.73
2022-08-17T10:16:08.675Z,24.73
2022-08-17T10:21:34.449Z,24.20
2022-08-17T10:26:43.054Z,23.98
2022-08-17T10:32:04.640Z,24.75
2022-08-17T10:37:37.620Z,23.23
2022-08-17T10:42:48.945Z,24.02
2022-08-17T10:48:27.995Z,23.40
2022-08-17T10:53:32.618Z,23.58
2022-08-17T10:58:45.539Z,25.25
2022-08-17T11:03:55.046Z,24.25
2022-08-17T11:09:19.942Z,23.85
2022-08-17T11:14:44.494Z,24.33
2022-08-17T11:20:12.935Z,24.13
2022-08-17T11:25:20.573Z,22.80
2022-08-17T11:30:43.576Z,25.98
2022-08-17T11:35:53.626Z,25.33
2022-08-17T11:41:03.025Z,24.40
2022-08-17T11:46:16.949Z,22.77
2022-08-17T11:51:34.588Z,24.05
2022-08-17T11:56:51.177Z,22.00
2022-08-17T12:01:56.721Z,22.40
2022-08-17T12:07:17.685Z,20.83
2022-08-17T12:12:29.680Z,22.38
2022-08-17T12:17:40.739Z,21.42
2022-08-17T12:23:09.131Z,22.35
2022-08-17T12:28:28.313Z,21.23
2022-08-17T12:33:30.341Z,21.55
2022-08-17T12:38:36.900Z,21.85
2022-08-17T12:43:38.675Z,24.25
2022-08-17T12:48:40.517Z,22.88
2022-08-17T12:54:01.981Z,22.30
2022-08-17T12:59:04.014Z,21.35
2022-08-17T13:04:06.621Z,24.48
2022-08-17T13:09:15.287Z,23.00
2022-08-17T13:14:20.415Z,23.33
2022-08-17T13:19:40.385Z,25.30
2022-08-17T13:24:55.894Z,24.08
2022-08-17T13:30:02.293Z,24.25
2022-08-17T13:35:39.210Z,25.30
2022-08-17T13:40:52.933Z,25.10
2022-08-17T13:46:08.937Z,26.45
2022-08-17T13:51:19.723Z,28.13
2022-08-17T13:56:38.675Z,28.42
2022-08-17T14:01:53.602Z,28.50
2022-08-17T14:07:02.282Z,27.45
2022-08-17T14:12:09.755Z,30.55
2022-08-17T14:17:12.378Z,29.42
2022-08-17T14:22:30.674Z,29.33
2022-08-17T14:27:34.669Z,29.55
2022-08-17T14:32:49.570Z,29.48
2022-08-17T14:37:52.642Z,30.35
2022-08-17T14:42:56.458Z,30.50
2022-08-17T14:47:58.184Z,31.08
2022-08-17T14:53:01.469Z,30.65
2022-08-17T14:58:04.145Z,30.23
2022-08-17T15:03:05.894Z,29.35
2022-08-17T15:08:08.024Z,31.20
2022-08-17T15:13:18.136Z,31.25
2022-08-17T15:18:20.097Z,30.30
2022-08-17T15:23:24.176Z,31.33
2022-08-17T15:28:26.015Z,36.15
2022-08-17T15:33:30.203Z,32.30
2022-08-17T15:38:39.545Z,30.80
2022-08-17T15:43:42.921Z,33.88
2022-08-17T15:48:50.447Z,33.20
2022-08-17T15:54:04.462Z,31.15
2022-08-17T15:59:20.650Z,32.78
2022-08-17T16:04:30.314Z,31.80
2022-08-17T16:09:33.108Z,26.15
2022-08-17T16:14:34.943Z,31.63
2022-08-17T16:19:39.198Z,34.97
2022-08-17T16:24:56.828Z,34.40
2022-08-17T16:29:59.373Z,33.55
2022-08-17T16:35:08.183Z,32.80
2022-08-17T16:40:11.516Z,34.90
2022-08-17T16:45:18.482Z,33.67
2022-08-17T16:50:22.654Z,35.75
2022-08-17T16:55:24.350Z,33.92
2022-08-17T17:00:26.031Z,36.40
2022-08-17T17:05:58.702Z,34.40
2022-08-17T17:11:26.846Z,36.33
2022-08-17T17:16:28.545Z,37.67
2022-08-17T17:22:14.965Z,37.08
2022-08-17T17:27:35.288Z,37.15
2022-08-17T17:32:46.275Z,36.13
2022-08-17T17:37:50.058Z,37.85
2022-08-17T17:42:55.059Z,37.45
2022-08-17T17:47:57.071Z,37.50
2022-08-17T17:53:09.500Z,36.97
2022-08-17T17:58:25.955Z,37.13
2022-08-17T18:04:12.416Z,37.85
2022-08-17T18:09:41.111Z,35.22
2022-08-17T18:14:53.363Z,38.13
2022-08-17T18:19:55.347Z,37.83
2022-08-17T18:24:57.388Z,38.67
2022-08-17T18:30:19.395Z,38.53
2022-08-17T18:35:30.326Z,42.95
2022-08-17T18:40:37.712Z,37.70
2022-08-17T18:45:42.079Z,43.13
2022-08-17T18:50:44.671Z,38.72
2022-08-17T18:55:47.755Z,37.17
2022-08-17T19:00:51.165Z,38.28
2022-08-17T19:06:15.154Z,40.25
2022-08-17T19:11:27.027Z,38.33
2022-08-17T19:16:31.926Z,41.55
2022-08-17T19:21:41.543Z,39.92
2022-08-17T19:26:51.226Z,41.63
2022-08-17T19:31:59.100Z,42.28
2022-08-17T19:37:16.094Z,43.38
2022-08-17T19:42:31.162Z,44.97
2022-08-17T19:48:03.022Z,44.58
2022-08-17T19:53:18.534Z,45.30
2022-08-17T19:58:26.373Z,42.30
2022-08-17T20:03:45.859Z,46.47
2022-08-17T20:08:58.532Z,45.83
2022-08-17T20:14:14.347Z,46.42
2022-08-17T20:19:53.224Z,43.58
2022-08-17T20:25:08.357Z,42.17
2022-08-17T20:30:30.051Z,39.80
2022-08-17T20:35:34.070Z,40.55
2022-08-17T20:40:55.083Z,37.53
2022-08-17T20:46:11.090Z,34.80
2022-08-17T20:51:24.207Z,34.67
2022-08-17T20:56:44.336Z,35.20
2022-08-17T21:02:02.491Z,36.28
2022-08-17T21:07:23.146Z,37.55
2022-08-17T21:12:47.908Z,33.92
2022-08-17T21:18:14.462Z,35.70
2022-08-17T21:23:31.699Z,33.43
2022-08-17T21:29:30.306Z,38.88
2022-08-17T21:34:29.245Z,40.03
2022-08-17T21:39:33.605Z,40.72
2022-08-17T21:44:39.296Z,37.95
2022-08-17T21:49:41.176Z,36.38
2022-08-17T21:55:06.477Z,33.50
2022-08-17T22:00:17.890Z,31.15
2022-08-17T22:05:37.413Z,29.38
2022-08-17T22:10:42.137Z,27.50
2022-08-17T22:15:48.414Z,27.43
2022-08-17T22:20:54.939Z,28.17
2022-08-17T22:26:04.607Z,28.10
2022-08-17T22:31:07.928Z,26.00
2022-08-17T22:36:31.292Z,28.00
2022-08-17T22:41:48.349Z,26.55
2022-08-17T22:47:19.095Z,28.55
2022-08-17T22:53:03.073Z,28.85
2022-08-17T22:58:33.525Z,30.55
2022-08-17T23:03:53.712Z,32.03
2022-08-17T23:08:56.648Z,31.63
2022-08-17T23:13:58.330Z,31.17
2022-08-17T23:19:00.089Z,31.67
2022-08-17T23:24:02.173Z,29.10
2022-08-17T23:29:08.925Z,28.40
2022-08-17T23:34:12.887Z,27.52
2022-08-17T23:39:14.559Z,24.20
2022-08-17T23:44:31.015Z,24.50
2022-08-17T23:49:32.705Z,22.80
2022-08-17T23:54:41.450Z,24.02
2022-08-17T23:59:43.991Z,24.70
